Time;durP1;ratioP1;P1;durP2;ratioP2;P2;SDS_P1;SDS_P2;PMS_P1;PMS_P2;Temp;Humidity;BMP_temperature;BMP_pressure;BME280_temperature;BME280_humidity;BME280_pressure;Samples;Min_cycle;Max_cycle;Signal;HPM_P1;HPM_P2
2020/03/20 00:00:21;;;;;;;19.9;17.8;;;;;;;10.1;80.58008;963.4439;;;;
2020/03/20 00:02:46;;;;;;;19.5;17.6;;;;;;;10;80.59668;963.3762;;;;
2020/03/20 00:05:12;;;;;;;19;17.2;;;;;;;9.94;81.0332;963.4559;;;;
2020/03/20 00:07:36;;;;;;;18.7;16.8;;;;;;;10.06;80.35352;963.3818;;;;
2020/03/20 00:10:02;;;;;;;20.3;18.2;;;;;;;9.97;81.87695;963.3591;;;;
2020/03/20 00:12:27;;;;;;;19.2;17.3;;;;;;;9.95;81.20703;963.3519;;;;
2020/03/20 00:14:52;;;;;;;20.9;18.8;;;;;;;9.89;81.19531;963.3225;;;;
2020/03/20 00:17:17;;;;;;;20.5;18.4;;;;;;;9.98;81.16602;963.2997;;;;
2020/03/20 00:19:42;;;;;;;20.5;18.5;;;;;;;9.95;81.33398;963.3014;;;;
2020/03/20 00:22:07;;;;;;;21.3;19.1;;;;;;;10.01;80.72461;963.2299;;;;
2020/03/20 00:24:32;;;;;;;20.2;18.2;;;;;;;10.02;81.20898;963.2392;;;;
2020/03/20 00:26:57;;;;;;;21.1;18.9;;;;;;;9.99;81.21582;963.2734;;;;
2020/03/20 00:29:22;;;;;;;21.1;19.1;;;;;;;9.99;81.04102;963.2894;;;;
2020/03/20 00:36:39;;;;;;;21;18.9;;;;;;;9.87;82.04199;963.2286;;;;
2020/03/20 00:39:03;;;;;;;21.2;19.2;;;;;;;9.86;81.70703;963.2012;;;;
2020/03/20 00:41:29;;;;;;;22.3;20.1;;;;;;;9.88;81.90625;963.2255;;;;
2020/03/20 00:43:54;;;;;;;21.3;19.1;;;;;;;9.83;82.24219;963.3095;;;;
2020/03/20 00:46:19;;;;;;;21.4;19.3;;;;;;;9.88;82.02246;963.2598;;;;
2020/03/20 00:49:31;;;;;;;21.2;19.1;;;;;;;9.8;82.71973;963.1964;;;;
2020/03/20 00:52:45;;;;;;;22.5;20.2;;;;;;;9.72;82.33496;963.1842;;;;
2020/03/20 00:55:10;;;;;;;22.3;19.9;;;;;;;9.69;82.44434;963.187;;;;
2020/03/20 00:57:35;;;;;;;21.3;19.3;;;;;;;9.67;82.63672;963.1253;;;;
2020/03/20 01:00:00;;;;;;;26.3;20.9;;;;;;;9.63;82.26074;963.0897;;;;
2020/03/20 01:03:00;;;;;;;22;19.8;;;;;;;9.58;82.99805;963.0463;;;;
2020/03/20 01:05:25;;;;;;;22.8;20.3;;;;;;;9.53;82.67773;963.0016;;;;
2020/03/20 01:07:50;;;;;;;22.5;20.2;;;;;;;9.45;83.03027;962.9739;;;;
2020/03/20 01:11:31;;;;;;;22.3;20;;;;;;;9.45;83.37207;962.9666;;;;
2020/03/20 01:13:56;;;;;;;23.1;20.9;;;;;;;9.45;83.36133;962.9503;;;;
2020/03/20 01:16:21;;;;;;;22.6;20.3;;;;;;;9.45;83.62891;962.8995;;;;
2020/03/20 01:18:46;;;;;;;23.2;20.8;;;;;;;9.38;83.66016;962.8753;;;;
2020/03/20 01:21:12;;;;;;;23.3;20.9;;;;;;;9.32;83.93359;962.8589;;;;
2020/03/20 01:23:37;;;;;;;23.7;21.2;;;;;;;9.32;84.61035;962.9003;;;;
2020/03/20 01:26:02;;;;;;;22.4;20.2;;;;;;;9.34;83.96191;962.8605;;;;
2020/03/20 01:28:40;;;;;;;22.7;20.4;;;;;;;9.34;83.93652;962.8189;;;;
2020/03/20 01:31:08;;;;;;;24.4;21.8;;;;;;;9.3;84.58398;962.824;;;;
2020/03/20 01:33:45;;;;;;;23.1;20.9;;;;;;;9.28;84.36426;962.8107;;;;
2020/03/20 01:35:58;;;;;;;23.4;21;;;;;;;9.29;84.74316;962.7864;;;;
2020/03/20 01:38:49;;;;;;;23.8;21.5;;;;;;;9.17;84.27246;962.7715;;;;
2020/03/20 01:41:28;;;;;;;23.5;21.2;;;;;;;9.1;85.17676;962.7012;;;;
2020/03/20 01:43:53;;;;;;;25.2;22.5;;;;;;;9.07;85.27441;962.6809;;;;
2020/03/20 01:46:18;;;;;;;23.3;21;;;;;;;9.08;85.46875;962.6713;;;;
2020/03/20 01:48:44;;;;;;;23.7;21.4;;;;;;;9.11;86.00586;962.6886;;;;
2020/03/20 01:51:09;;;;;;;24.7;22.3;;;;;;;9.09;85.46094;962.6487;;;;
2020/03/20 01:53:34;;;;;;;25.3;22.8;;;;;;;9.1;86.75879;962.6704;;;;
2020/03/20 01:56:04;;;;;;;25.9;23.2;;;;;;;9.08;85.87207;962.5941;;;;
2020/03/20 01:58:29;;;;;;;24.9;22.3;;;;;;;9.11;85.93555;962.5648;;;;
2020/03/20 02:00:54;;;;;;;26.1;23.5;;;;;;;9.06;86.18848;962.6307;;;;
2020/03/20 02:03:19;;;;;;;26;23.5;;;;;;;8.97;85.90625;962.611;;;;
2020/03/20 02:05:44;;;;;;;26.1;23.6;;;;;;;8.94;86.45117;962.6483;;;;
2020/03/20 02:09:58;;;;;;;26.4;23.8;;;;;;;9.14;85.64258;962.6796;;;;
2020/03/20 02:12:23;;;;;;;27.8;25;;;;;;;9.05;86.2207;962.6387;;;;
2020/03/20 02:14:48;;;;;;;27.6;24.5;;;;;;;9.04;86.16309;962.6216;;;;
2020/03/20 02:17:13;;;;;;;27;24.3;;;;;;;8.99;86.03809;962.6135;;;;
2020/03/20 02:19:38;;;;;;;26.5;23.8;;;;;;;8.98;85.76074;962.6278;;;;
2020/03/20 02:22:03;;;;;;;27.8;24.9;;;;;;;9.03;85.55176;962.6836;;;;
2020/03/20 02:24:29;;;;;;;27;24.4;;;;;;;8.95;86.70605;962.6847;;;;
2020/03/20 02:26:54;;;;;;;29.2;26.1;;;;;;;8.95;85.9834;962.6587;;;;
2020/03/20 02:29:19;;;;;;;27.7;25;;;;;;;8.89;86.58008;962.6323;;;;
2020/03/20 02:31:45;;;;;;;27.5;24.8;;;;;;;8.84;86.60352;962.634;;;;
2020/03/20 02:34:10;;;;;;;27.3;24.5;;;;;;;8.87;86.33398;962.6429;;;;
2020/03/20 02:36:35;;;;;;;26.8;24.2;;;;;;;8.85;86.68555;962.6099;;;;
2020/03/20 02:39:00;;;;;;;28.1;25.1;;;;;;;8.76;86.91992;962.6208;;;;
2020/03/20 02:41:25;;;;;;;28.3;25.4;;;;;;;8.62;88.23145;962.6029;;;;
2020/03/20 02:43:50;;;;;;;25.3;22.7;;;;;;;8.74;87.64941;962.6497;;;;
2020/03/20 02:47:36;;;;;;;25.9;23.4;;;;;;;8.71;87.58691;962.6155;;;;
2020/03/20 02:50:02;;;;;;;25.5;22.8;;;;;;;8.74;86.88184;962.6075;;;;
2020/03/20 02:52:27;;;;;;;25.1;22.6;;;;;;;8.6;87.88574;962.5958;;;;
2020/03/20 02:54:52;;;;;;;25.2;22.5;;;;;;;;;;;;;
2020/03/20 02:57:17;;;;;;;25.5;22.9;;;;;;;;;;;;;
2020/03/20 02:59:42;;;;;;;25.4;22.7;;;;;;;;;;;;;
2020/03/20 03:02:07;;;;;;;24.7;22.2;;;;;;;;;;;;;
2020/03/20 03:04:32;;;;;;;24.6;22.2;;;;;;;;;;;;;
2020/03/20 03:06:57;;;;;;;24.8;22.3;;;;;;;;;;;;;
2020/03/20 03:09:22;;;;;;;24.9;22.3;;;;;;;;;;;;;
2020/03/20 03:11:48;;;;;;;23.1;20.7;;;;;;;;;;;;;
2020/03/20 03:14:13;;;;;;;24;21.6;;;;;;;;;;;;;
2020/03/20 03:16:38;;;;;;;24.2;21.8;;;;;;;;;;;;;
2020/03/20 03:19:04;;;;;;;23.5;21.1;;;;;;;;;;;;;
2020/03/20 03:21:29;;;;;;;22.9;20.6;;;;;;;;;;;;;
2020/03/20 03:23:54;;;;;;;23.1;20.8;;;;;;;;;;;;;
2020/03/20 03:26:19;;;;;;;25;22.3;;;;;;;;;;;;;
2020/03/20 03:28:44;;;;;;;24.8;22.2;;;;;;;;;;;;;
2020/03/20 03:31:09;;;;;;;24.5;22.1;;;;;;;;;;;;;
2020/03/20 03:33:34;;;;;;;25.7;22.7;;;;;;;;;;;;;
2020/03/20 03:35:59;;;;;;;25.1;22.6;;;;;;;;;;;;;
2020/03/20 03:38:25;;;;;;;26.3;22.3;;;;;;;;;;;;;
2020/03/20 03:40:50;;;;;;;27.2;24.4;;;;;;;;;;;;;
2020/03/20 03:43:15;;;;;;;27.5;24.7;;;;;;;;;;;;;
2020/03/20 03:45:40;;;;;;;29.1;26;;;;;;;;;;;;;
2020/03/20 03:48:05;;;;;;;29.1;26;;;;;;;;;;;;;
2020/03/20 03:50:30;;;;;;;29;25.5;;;;;;;;;;;;;
2020/03/20 03:52:55;;;;;;;27.8;24.9;;;;;;;;;;;;;
2020/03/20 03:55:20;;;;;;;28.3;25.4;;;;;;;;;;;;;
2020/03/20 03:57:45;;;;;;;28.6;25.7;;;;;;;;;;;;;
2020/03/20 04:02:26;;;;;;;28.4;25.5;;;;;;;8.19;89.33398;962.3922;;;;
2020/03/20 04:04:52;;;;;;;28.2;25.2;;;;;;;8.16;89.53613;962.4026;;;;
2020/03/20 04:07:17;;;;;;;28.8;25.8;;;;;;;8.11;89.42188;962.4669;;;;
2020/03/20 04:09:42;;;;;;;27.7;24.9;;;;;;;8.06;89.53613;962.4423;;;;
2020/03/20 04:12:07;;;;;;;28.9;25.9;;;;;;;8;89.71973;962.408;;;;
2020/03/20 04:14:32;;;;;;;28.7;25.7;;;;;;;7.98;89.91992;962.4041;;;;
2020/03/20 04:16:57;;;;;;;29.4;25;;;;;;;8.14;88.64941;962.3234;;;;
2020/03/20 04:19:22;;;;;;;28.6;25.6;;;;;;;8.03;89.74609;962.3276;;;;
2020/03/20 04:21:47;;;;;;;28.4;25.5;;;;;;;8.04;89.62207;962.3709;;;;
2020/03/20 04:24:12;;;;;;;27.9;25.1;;;;;;;8;89.69531;962.3649;;;;
2020/03/20 04:26:37;;;;;;;30.9;27.6;;;;;;;8;89.84375;962.3641;;;;
2020/03/20 04:29:02;;;;;;;31.4;28.2;;;;;;;7.99;89.78613;962.3851;;;;
2020/03/20 04:31:28;;;;;;;32.6;29.3;;;;;;;8.03;89.97754;962.3959;;;;
2020/03/20 04:33:53;;;;;;;30.6;27.6;;;;;;;8.11;89.12402;962.3873;;;;
2020/03/20 04:36:18;;;;;;;33.6;30.3;;;;;;;8.06;89.93652;962.3613;;;;
2020/03/20 04:38:43;;;;;;;32.7;29.5;;;;;;;7.98;90.34375;962.4073;;;;
2020/03/20 04:41:08;;;;;;;34.5;30.9;;;;;;;7.97;90.43262;962.4118;;;;
2020/03/20 04:43:33;;;;;;;33.3;29.9;;;;;;;7.94;89.72754;962.4083;;;;
2020/03/20 04:45:59;;;;;;;33.4;30;;;;;;;7.74;90.31738;962.4128;;;;
2020/03/20 04:48:24;;;;;;;33.1;29.6;;;;;;;7.76;90.61816;962.3675;;;;
2020/03/20 04:50:50;;;;;;;31.2;27.9;;;;;;;7.87;90.02539;962.4078;;;;
2020/03/20 04:53:15;;;;;;;31;27.8;;;;;;;7.84;90.11914;962.3904;;;;
2020/03/20 04:55:40;;;;;;;30.7;27.7;;;;;;;7.83;90.24316;962.3793;;;;
2020/03/20 04:58:05;;;;;;;33.3;29.7;;;;;;;7.77;90.62012;962.383;;;;
2020/03/20 05:00:30;;;;;;;30.5;27.3;;;;;;;7.84;90.30176;962.3807;;;;
2020/03/20 05:02:57;;;;;;;31.9;28.6;;;;;;;7.84;90.00488;962.4103;;;;
2020/03/20 05:05:22;;;;;;;32.3;28.2;;;;;;;7.8;90.00879;962.3694;;;;
2020/03/20 05:07:47;;;;;;;31.4;28.3;;;;;;;7.74;90.43164;962.4153;;;;
2020/03/20 05:10:12;;;;;;;30.5;27.3;;;;;;;7.82;89.72656;962.4228;;;;
2020/03/20 05:12:37;;;;;;;29.7;26.7;;;;;;;7.92;89.72363;962.4197;;;;
2020/03/20 05:15:02;;;;;;;31.4;28.1;;;;;;;7.71;90.10254;962.4166;;;;
2020/03/20 05:17:28;;;;;;;30.3;27;;;;;;;7.78;90.15137;962.3981;;;;
2020/03/20 05:19:53;;;;;;;30.3;27.2;;;;;;;7.78;90.2334;962.3884;;;;
2020/03/20 05:22:18;;;;;;;31.2;27.9;;;;;;;7.65;90.81055;962.3983;;;;
2020/03/20 05:24:43;;;;;;;31.3;28.1;;;;;;;7.57;91.23926;962.3829;;;;
2020/03/20 05:27:08;;;;;;;31.3;28;;;;;;;7.54;91.34863;962.4024;;;;
2020/03/20 05:29:33;;;;;;;32.7;28.2;;;;;;;7.51;91.49121;962.3815;;;;
2020/03/20 05:31:59;;;;;;;32.3;28.9;;;;;;;7.59;91.04004;962.3436;;;;
2020/03/20 05:34:24;;;;;;;31.4;28.1;;;;;;;7.59;91.42871;962.3947;;;;
2020/03/20 05:36:49;;;;;;;31.6;28.4;;;;;;;7.64;91.14063;962.4103;;;;
2020/03/20 05:39:14;;;;;;;31.4;27.7;;;;;;;7.72;90.59766;962.3762;;;;
2020/03/20 05:41:39;;;;;;;32.5;29;;;;;;;7.55;91.01855;962.3691;;;;
2020/03/20 05:44:04;;;;;;;30.3;27.2;;;;;;;7.69;90.30371;962.4092;;;;
2020/03/20 05:46:29;;;;;;;30.3;27.1;;;;;;;7.73;90.09473;962.4449;;;;
2020/03/20 05:48:54;;;;;;;30.1;27;;;;;;;7.62;90.94043;962.4167;;;;
2020/03/20 05:52:22;;;;;;;31.4;28.1;;;;;;;7.56;91.14648;962.387;;;;
2020/03/20 05:54:47;;;;;;;29.4;26.4;;;;;;;7.66;90.45996;962.4177;;;;
2020/03/20 05:57:12;;;;;;;30;26.7;;;;;;;7.71;90.11523;962.4142;;;;
2020/03/20 05:59:37;;;;;;;30.7;27.5;;;;;;;7.69;90.39746;962.4073;;;;
2020/03/20 06:02:02;;;;;;;30.9;27.6;;;;;;;7.7;90.20313;962.4609;;;;
2020/03/20 06:04:27;;;;;;;31.3;28.1;;;;;;;7.56;90.73633;962.4634;;;;
2020/03/20 06:06:52;;;;;;;30.5;27.3;;;;;;;7.63;90.99023;962.4799;;;;
2020/03/20 06:09:17;;;;;;;30.3;27.2;;;;;;;7.68;90.24512;962.5105;;;;
2020/03/20 06:11:42;;;;;;;29.9;26.8;;;;;;;7.8;89.79102;962.4936;;;;
2020/03/20 06:14:08;;;;;;;29.8;26.6;;;;;;;7.88;89.56738;962.5287;;;;
2020/03/20 06:16:33;;;;;;;29.2;26.2;;;;;;;7.95;88.93066;962.5229;;;;
2020/03/20 06:18:58;;;;;;;29;26.1;;;;;;;8.03;88.3291;962.5527;;;;
2020/03/20 06:21:23;;;;;;;27.9;24.9;;;;;;;8.17;87.92188;962.5508;;;;
2020/03/20 06:23:48;;;;;;;29.7;25.6;;;;;;;8.1;88.99609;962.5728;;;;
2020/03/20 06:26:13;;;;;;;28.5;25.5;;;;;;;8.12;89.18164;962.5628;;;;
2020/03/20 06:28:38;;;;;;;28.4;25.5;;;;;;;8.15;88.83398;962.55;;;;
2020/03/20 06:31:03;;;;;;;28.2;25.3;;;;;;;8.22;88.21973;962.5296;;;;
2020/03/20 06:33:33;;;;;;;27.9;24.9;;;;;;;8.28;88.00098;962.555;;;;
2020/03/20 06:35:53;;;;;;;26.9;24.1;;;;;;;8.39;87.70313;962.5386;;;;
2020/03/20 06:38:18;;;;;;;31;24.8;;;;;;;8.46;87.33984;962.5474;;;;
2020/03/20 06:40:44;;;;;;;30.3;25.1;;;;;;;8.42;86.60059;962.5689;;;;
2020/03/20 06:43:09;;;;;;;27.6;24.7;;;;;;;8.45;87.17871;962.5918;;;;
2020/03/20 06:45:34;;;;;;;26.7;23.9;;;;;;;8.72;86.02832;962.6197;;;;
2020/03/20 06:48:11;;;;;;;27.6;24.5;;;;;;;8.7;85.40625;962.6345;;;;
2020/03/20 06:50:26;;;;;;;26;23.1;;;;;;;8.75;85.84277;962.7076;;;;
2020/03/20 06:52:49;;;;;;;26.5;23;;;;;;;8.9;85.21777;962.6944;;;;
2020/03/20 06:55:14;;;;;;;28.4;22.8;;;;;;;9.14;83.48535;962.7438;;;;
2020/03/20 06:57:39;;;;;;;27.1;22.7;;;;;;;8.92;83.67383;962.7756;;;;
2020/03/20 07:00:05;;;;;;;26.1;21.8;;;;;;;8.98;83.00684;962.7156;;;;
2020/03/20 07:02:30;;;;;;;26.4;21.7;;;;;;;8.87;82.63086;962.756;;;;
2020/03/20 07:04:55;;;;;;;25.1;21.3;;;;;;;8.93;82.96387;962.7327;;;;
2020/03/20 07:07:20;;;;;;;23.7;20.7;;;;;;;9.29;82.9873;962.7181;;;;
2020/03/20 07:09:45;;;;;;;23.4;21;;;;;;;9.36;82.67969;962.7452;;;;
2020/03/20 07:12:10;;;;;;;23.9;20.3;;;;;;;9.47;81.25586;962.7339;;;;
2020/03/20 07:14:35;;;;;;;22;19.4;;;;;;;9.65;80.58691;962.7463;;;;
2020/03/20 07:17:01;;;;;;;22.4;20;;;;;;;9.77;80.49609;962.7194;;;;
2020/03/20 07:19:26;;;;;;;24.9;20.1;;;;;;;9.71;80.42773;962.7276;;;;
2020/03/20 07:21:51;;;;;;;21.4;19.2;;;;;;;9.85;80.2793;962.7452;;;;
2020/03/20 07:24:17;;;;;;;24.2;19.9;;;;;;;9.74;80.00781;962.7389;;;;
2020/03/20 07:26:42;;;;;;;24.2;20.4;;;;;;;9.72;80.77246;962.7464;;;;
2020/03/20 07:29:08;;;;;;;22.7;19.4;;;;;;;9.89;80.28906;962.7601;;;;
2020/03/20 07:31:33;;;;;;;23.2;18.7;;;;;;;10.02;79.72656;962.7564;;;;
2020/03/20 07:33:58;;;;;;;27.9;19.7;;;;;;;9.86;80.37402;962.769;;;;
2020/03/20 07:36:24;;;;;;;23.5;19.1;;;;;;;10.01;79.79199;962.7225;;;;
2020/03/20 07:38:49;;;;;;;20.8;18.1;;;;;;;10.06;79.44727;962.7525;;;;
2020/03/20 07:41:14;;;;;;;22.6;19.2;;;;;;;10.15;79.28906;962.7612;;;;
2020/03/20 07:43:39;;;;;;;21.6;18.6;;;;;;;10.17;79.14453;962.7758;;;;
2020/03/20 07:46:04;;;;;;;23.6;19.1;;;;;;;10.2;79.61035;962.7252;;;;
2020/03/20 07:48:29;;;;;;;20.5;18.3;;;;;;;10.37;77.84863;962.6539;;;;
2020/03/20 07:50:54;;;;;;;22.2;18.8;;;;;;;10.35;78.68164;962.7045;;;;
2020/03/20 07:53:20;;;;;;;24.4;18.8;;;;;;;10.52;78.41309;962.6649;;;;
2020/03/20 07:55:45;;;;;;;22.6;18.5;;;;;;;10.62;78.17773;962.7045;;;;
2020/03/20 07:58:11;;;;;;;22.4;17.7;;;;;;;10.69;77.70703;962.6371;;;;
2020/03/20 08:00:36;;;;;;;23.2;18.4;;;;;;;10.83;77.56055;962.6838;;;;
2020/03/20 08:03:01;;;;;;;19.9;17.9;;;;;;;10.98;76.03223;962.6847;;;;
2020/03/20 08:05:26;;;;;;;19.9;17.8;;;;;;;11.11;75.27051;962.6581;;;;
2020/03/20 08:07:52;;;;;;;18.6;16.7;;;;;;;11.18;75.47949;962.6563;;;;
2020/03/20 08:10:17;;;;;;;23.7;19.9;;;;;;;11.11;74.36035;962.6303;;;;
2020/03/20 08:12:43;;;;;;;20.5;17.6;;;;;;;11.31;74.17676;962.6984;;;;
2020/03/20 08:15:08;;;;;;;19.3;17.3;;;;;;;11.38;75.91895;962.659;;;;
2020/03/20 08:17:33;;;;;;;22.3;17.7;;;;;;;11.49;74.50781;962.6573;;;;
2020/03/20 08:19:58;;;;;;;19.6;17.5;;;;;;;11.54;74.88379;962.6393;;;;
2020/03/20 08:22:23;;;;;;;19.6;17.2;;;;;;;11.62;73.68848;962.623;;;;
2020/03/20 08:24:48;;;;;;;22.4;18;;;;;;;11.66;73.22168;962.6041;;;;
2020/03/20 08:27:13;;;;;;;24.2;18.4;;;;;;;11.27;74.03125;962.6288;;;;
2020/03/20 08:29:38;;;;;;;19.6;17.5;;;;;;;11.53;73.72949;962.6408;;;;
2020/03/20 08:32:03;;;;;;;19.4;17;;;;;;;11.73;73.08301;962.5796;;;;
2020/03/20 08:34:29;;;;;;;20.5;17.8;;;;;;;11.87;73.26758;962.5447;;;;
2020/03/20 08:36:54;;;;;;;18.9;17;;;;;;;11.98;73.26465;962.587;;;;
2020/03/20 08:39:19;;;;;;;22;17.3;;;;;;;12.09;72.10449;962.5792;;;;
2020/03/20 08:41:45;;;;;;;22.8;17.9;;;;;;;12.04;73.19434;962.5767;;;;
2020/03/20 08:44:10;;;;;;;20.2;17.5;;;;;;;12.16;72.7168;962.5901;;;;
2020/03/20 08:46:35;;;;;;;20.6;17;;;;;;;12.27;72.50195;962.5848;;;;
2020/03/20 08:49:00;;;;;;;25;17.1;;;;;;;12.39;71.21777;962.5396;;;;
2020/03/20 08:51:25;;;;;;;18.8;16.3;;;;;;;12.48;72.00781;962.5811;;;;
2020/03/20 08:53:51;;;;;;;22.5;16.6;;;;;;;12.66;71.00684;962.6175;;;;
2020/03/20 08:56:16;;;;;;;18.2;15.9;;;;;;;12.7;71.67383;962.5566;;;;
2020/03/20 08:58:43;;;;;;;19.1;15.2;;;;;;;12.73;70.94922;962.5939;;;;
2020/03/20 09:01:08;;;;;;;16.9;15.1;;;;;;;12.77;71.15332;962.5134;;;;
2020/03/20 09:03:33;;;;;;;18.8;15.8;;;;;;;12.84;70.92188;962.4657;;;;
2020/03/20 09:05:58;;;;;;;20.7;15.8;;;;;;;12.76;69.625;962.4864;;;;
2020/03/20 09:08:23;;;;;;;18.9;15.5;;;;;;;12.9;71.00195;962.4886;;;;
2020/03/20 09:10:48;;;;;;;16.4;14.6;;;;;;;13.13;69.60254;962.4958;;;;
2020/03/20 09:13:13;;;;;;;18.6;16;;;;;;;13.23;69.57227;962.5014;;;;
2020/03/20 09:15:39;;;;;;;18.5;15.6;;;;;;;13.29;68.29785;962.514;;;;
2020/03/20 09:18:04;;;;;;;19.5;15.6;;;;;;;13.46;67.66113;962.5258;;;;
2020/03/20 09:20:29;;;;;;;19.9;14.8;;;;;;;13.48;67.82813;962.5197;;;;
2020/03/20 09:22:55;;;;;;;17.9;15.4;;;;;;;13.56;67.68945;962.4913;;;;
2020/03/20 09:25:20;;;;;;;20.3;15.5;;;;;;;13.67;67.16309;962.4394;;;;
2020/03/20 09:27:45;;;;;;;22.1;15.6;;;;;;;13.72;67.61035;962.4496;;;;
2020/03/20 09:30:10;;;;;;;19.9;14.7;;;;;;;13.88;65.33887;962.4213;;;;
2020/03/20 09:32:35;;;;;;;17.5;14.9;;;;;;;13.98;64.53027;962.4026;;;;
2020/03/20 09:35:01;;;;;;;18.2;14.7;;;;;;;13.93;64.68457;962.3642;;;;
2020/03/20 09:37:26;;;;;;;18.6;15.2;;;;;;;13.92;64.55566;962.325;;;;
2020/03/20 09:39:51;;;;;;;17.9;14.7;;;;;;;14.09;63.98926;962.2924;;;;
2020/03/20 09:42:16;;;;;;;20.5;15.1;;;;;;;14.11;64.03809;962.2726;;;;
2020/03/20 09:44:42;;;;;;;16.8;14.1;;;;;;;14.2;64.54004;962.2628;;;;
2020/03/20 09:47:07;;;;;;;17.1;14.9;;;;;;;14.34;63.58496;962.2699;;;;
2020/03/20 09:49:32;;;;;;;18.4;14.4;;;;;;;14.47;63.13867;962.2151;;;;
2020/03/20 09:51:57;;;;;;;15.4;13.9;;;;;;;14.55;63.15039;962.2244;;;;
2020/03/20 09:54:23;;;;;;;15.8;14.1;;;;;;;14.54;63.41797;962.2302;;;;
2020/03/20 09:56:48;;;;;;;18.5;14.8;;;;;;;14.76;61.46094;962.1612;;;;
2020/03/20 09:59:13;;;;;;;17.2;14.9;;;;;;;14.84;61.4834;962.1525;;;;
2020/03/20 10:01:39;;;;;;;19.7;15.3;;;;;;;14.7;61.03418;962.1124;;;;
2020/03/20 10:04:04;;;;;;;16.6;14.8;;;;;;;14.76;61.47363;962.1226;;;;
2020/03/20 10:06:30;;;;;;;19.2;15.1;;;;;;;14.93;61.00879;962.077;;;;
2020/03/20 10:08:55;;;;;;;20.2;15.4;;;;;;;14.81;61.13184;962.114;;;;
2020/03/20 10:11:20;;;;;;;17.1;14.5;;;;;;;15;60.57617;962.0593;;;;
2020/03/20 10:13:45;;;;;;;17.5;15;;;;;;;15.12;61.58203;962.0731;;;;
2020/03/20 10:16:10;;;;;;;18.8;15.8;;;;;;;14.84;62.47168;962.0707;;;;
2020/03/20 10:18:35;;;;;;;17.7;15.8;;;;;;;15.08;60.99414;962.0804;;;;
2020/03/20 10:21:04;;;;;;;17.6;15.4;;;;;;;15.14;61.72559;962.0438;;;;
2020/03/20 10:23:25;;;;;;;17.5;15.3;;;;;;;15.36;60.54395;962.0003;;;;
2020/03/20 10:25:51;;;;;;;20.3;17.1;;;;;;;15.4;60.5166;962.0442;;;;
2020/03/20 10:28:16;;;;;;;16.6;14.9;;;;;;;15.38;59.46582;961.9899;;;;
2020/03/20 10:30:41;;;;;;;17.6;14.4;;;;;;;15.34;59.75195;961.9821;;;;
2020/03/20 10:33:06;;;;;;;18.9;15.7;;;;;;;15.39;60.23535;961.948;;;;
2020/03/20 10:35:31;;;;;;;18.1;16.1;;;;;;;15.44;59.40332;961.885;;;;
2020/03/20 10:37:56;;;;;;;19.4;15.3;;;;;;;15.5;60.0166;961.905;;;;
2020/03/20 10:40:21;;;;;;;15.6;14;;;;;;;15.53;58.76465;961.9363;;;;
2020/03/20 10:42:46;;;;;;;16.6;14.9;;;;;;;15.57;58.69922;961.855;;;;
2020/03/20 10:45:11;;;;;;;16.8;14.7;;;;;;;15.75;57.10449;961.8303;;;;
2020/03/20 10:47:36;;;;;;;16.1;14.4;;;;;;;15.66;57.80469;961.7549;;;;
2020/03/20 10:50:01;;;;;;;18;14.4;;;;;;;15.7;57.73828;961.7578;;;;
2020/03/20 10:52:26;;;;;;;16.3;14.5;;;;;;;15.67;57.75781;961.7196;;;;
2020/03/20 10:54:51;;;;;;;18.5;15.2;;;;;;;15.8;57.22852;961.6637;;;;
2020/03/20 10:57:16;;;;;;;15.8;14.1;;;;;;;15.99;56.70508;961.6433;;;;
2020/03/20 10:59:42;;;;;;;15.8;12.6;;;;;;;16.14;54.42871;961.6501;;;;
2020/03/20 11:02:07;;;;;;;14.1;12.6;;;;;;;16.23;53.78613;961.6436;;;;
2020/03/20 11:05:12;;;;;;;14;12.6;;;;;;;16.28;54.44629;961.5828;;;;
2020/03/20 11:07:37;;;;;;;15.7;13.1;;;;;;;16.24;54.49902;961.5826;;;;
2020/03/20 11:10:02;;;;;;;16.9;13.4;;;;;;;16.18;55.05078;961.548;;;;
2020/03/20 11:12:27;;;;;;;14.6;12.4;;;;;;;16.19;55.32129;961.5572;;;;
2020/03/20 11:14:52;;;;;;;15.7;13.5;;;;;;;16.57;52.95313;961.5363;;;;
2020/03/20 11:17:17;;;;;;;15.9;13.7;;;;;;;16.58;52.96582;961.5341;;;;
2020/03/20 11:19:42;;;;;;;14.3;12.3;;;;;;;16.85;52.71875;961.4713;;;;
2020/03/20 11:22:07;;;;;;;13.5;12.1;;;;;;;16.76;52.49707;961.4617;;;;
2020/03/20 11:24:32;;;;;;;13.8;12.4;;;;;;;16.32;53.36621;961.4191;;;;
2020/03/20 11:26:58;;;;;;;13.5;12;;;;;;;16.27;53.23242;961.3904;;;;
2020/03/20 11:29:23;;;;;;;13.2;11.3;;;;;;;16.47;52.85938;961.3638;;;;
2020/03/20 11:31:48;;;;;;;14.6;11.8;;;;;;;16.46;53.46387;961.3705;;;;
2020/03/20 11:34:13;;;;;;;13.2;11.8;;;;;;;16.52;51.51172;961.2947;;;;
2020/03/20 11:36:38;;;;;;;14;11.4;;;;;;;16.68;51.37988;961.2639;;;;
2020/03/20 11:39:03;;;;;;;13.7;11.4;;;;;;;16.82;50.3916;961.236;;;;
2020/03/20 11:41:28;;;;;;;14.5;12.4;;;;;;;17.09;52.41992;961.2327;;;;
2020/03/20 11:43:53;;;;;;;14.1;11.3;;;;;;;16.98;50.91113;961.2346;;;;
2020/03/20 11:46:18;;;;;;;13;11.3;;;;;;;16.97;49.68359;961.1994;;;;
2020/03/20 11:48:43;;;;;;;12.4;11.1;;;;;;;16.95;49.4248;961.2183;;;;
2020/03/20 11:51:08;;;;;;;14.6;11.6;;;;;;;17;50.90234;961.2206;;;;
2020/03/20 11:53:35;;;;;;;15.7;13.3;;;;;;;17.07;52.31152;961.1783;;;;
2020/03/20 11:56:00;;;;;;;13.8;12.4;;;;;;;17.05;52.89355;961.1555;;;;
2020/03/20 11:58:25;;;;;;;15.8;13.1;;;;;;;17.12;50.27441;961.0991;;;;
2020/03/20 12:00:50;;;;;;;14.5;12.9;;;;;;;17.15;51.50488;961.052;;;;
2020/03/20 12:03:16;;;;;;;13.7;12.3;;;;;;;17.34;50.6377;961.0411;;;;
2020/03/20 12:05:41;;;;;;;13.6;10.7;;;;;;;17.05;48.25586;961.035;;;;
2020/03/20 12:08:06;;;;;;;11.4;9.9;;;;;;;17.06;48.36328;961.003;;;;
2020/03/20 12:10:31;;;;;;;14.3;11;;;;;;;17.29;48.13086;960.937;;;;
2020/03/20 12:12:56;;;;;;;12.6;10.7;;;;;;;17.07;48.27051;960.96;;;;
2020/03/20 12:15:21;;;;;;;15.6;10.9;;;;;;;17.14;47.93848;960.9301;;;;
2020/03/20 12:17:46;;;;;;;11.7;9.5;;;;;;;17.23;48.5459;960.8614;;;;
2020/03/20 12:20:11;;;;;;;14.4;10.9;;;;;;;17.31;47.96973;960.8402;;;;
2020/03/20 12:22:36;;;;;;;12.8;10.7;;;;;;;17.5;49.25195;960.8318;;;;
2020/03/20 12:25:01;;;;;;;13.4;10.9;;;;;;;17.46;49.43652;960.8205;;;;
2020/03/20 12:27:27;;;;;;;13.8;10.5;;;;;;;17.41;48.16699;960.7838;;;;
2020/03/20 12:29:52;;;;;;;12.9;11.2;;;;;;;17.41;47.97949;960.731;;;;
2020/03/20 12:32:17;;;;;;;11.9;10.4;;;;;;;17.26;47.90527;960.6906;;;;
2020/03/20 12:34:42;;;;;;;14.2;11.9;;;;;;;17.15;48.33691;960.6387;;;;
2020/03/20 12:37:07;;;;;;;16.6;11.3;;;;;;;17.4;48.27148;960.6191;;;;
2020/03/20 12:39:32;;;;;;;13.8;10.6;;;;;;;17.52;49.78125;960.6215;;;;
2020/03/20 12:41:57;;;;;;;13.1;10.5;;;;;;;17.6;47.91895;960.6047;;;;
2020/03/20 12:44:22;;;;;;;12.8;10.4;;;;;;;17.61;47.45215;960.5804;;;;
2020/03/20 12:46:47;;;;;;;14.7;10.6;;;;;;;17.68;46.32422;960.5556;;;;
2020/03/20 12:49:12;;;;;;;12.7;9.7;;;;;;;17.96;46.96387;960.4844;;;;
2020/03/20 12:51:38;;;;;;;15.1;9.9;;;;;;;18.05;46.5166;960.4564;;;;
2020/03/20 12:54:03;;;;;;;13.1;10.7;;;;;;;17.57;45.7998;960.4778;;;;
2020/03/20 12:56:28;;;;;;;15.1;10.4;;;;;;;17.89;46.26563;960.405;;;;
2020/03/20 12:58:53;;;;;;;14.8;10.8;;;;;;;18.08;46.14453;960.3663;;;;
2020/03/20 13:01:18;;;;;;;16.1;10.8;;;;;;;18.04;45.64941;960.3246;;;;
2020/03/20 13:03:43;;;;;;;13.3;11.1;;;;;;;18.04;46.49219;960.29;;;;
2020/03/20 13:06:08;;;;;;;14.9;10.7;;;;;;;17.96;47.01074;960.2699;;;;
2020/03/20 13:08:33;;;;;;;13.7;10.3;;;;;;;18.01;46.40723;960.2408;;;;
2020/03/20 13:10:59;;;;;;;15.8;10.3;;;;;;;17.86;47.98145;960.2072;;;;
2020/03/20 13:13:24;;;;;;;14.1;10.8;;;;;;;17.72;46.99707;960.2403;;;;
2020/03/20 13:15:49;;;;;;;13.2;10.6;;;;;;;17.84;45.95508;960.173;;;;
2020/03/20 13:18:14;;;;;;;13.3;10.2;;;;;;;17.74;47.08008;960.1553;;;;
2020/03/20 13:20:39;;;;;;;15.3;10;;;;;;;17.47;47.49512;960.1818;;;;
2020/03/20 13:23:04;;;;;;;13;9.7;;;;;;;17.54;47.27051;960.1484;;;;
2020/03/20 13:25:29;;;;;;;13.5;10.3;;;;;;;17.66;47.39844;960.1253;;;;
2020/03/20 13:27:55;;;;;;;12.6;9.3;;;;;;;17.75;47.21094;960.0875;;;;
2020/03/20 13:30:20;;;;;;;12.5;9.6;;;;;;;17.8;46.87598;960.0898;;;;
2020/03/20 13:32:45;;;;;;;12.9;9.8;;;;;;;17.78;48.40723;960.0424;;;;
2020/03/20 13:35:10;;;;;;;13.6;9.7;;;;;;;17.69;47.69531;960.0377;;;;
2020/03/20 13:37:35;;;;;;;12.7;10.1;;;;;;;17.71;46.46875;960.0245;;;;
2020/03/20 13:40:00;;;;;;;13.1;10.4;;;;;;;17.84;46.16699;960.0037;;;;
2020/03/20 13:42:25;;;;;;;14;10.7;;;;;;;17.89;45.99609;959.9779;;;;
2020/03/20 13:44:50;;;;;;;11.7;10.1;;;;;;;17.87;46.74414;959.9473;;;;
2020/03/20 13:47:15;;;;;;;11.1;9.8;;;;;;;17.73;48.16699;959.9317;;;;
2020/03/20 13:49:40;;;;;;;14.9;10.8;;;;;;;17.83;46.64453;959.9716;;;;
2020/03/20 13:52:05;;;;;;;15.2;10.4;;;;;;;17.85;46.95215;959.8981;;;;
2020/03/20 13:54:31;;;;;;;11.7;10.1;;;;;;;17.94;45.66113;959.8594;;;;
2020/03/20 13:56:56;;;;;;;15.8;10.6;;;;;;;17.94;46.92578;959.8693;;;;
2020/03/20 13:59:21;;;;;;;14.7;10.9;;;;;;;17.92;48.04688;959.7877;;;;
2020/03/20 14:01:47;;;;;;;13.6;10.3;;;;;;;18.14;45.89355;959.7849;;;;
2020/03/20 14:04:12;;;;;;;13.4;10.9;;;;;;;18.23;45.42383;959.7665;;;;
2020/03/20 14:06:37;;;;;;;16.7;11.4;;;;;;;18.24;45.90332;959.7574;;;;
2020/03/20 14:09:02;;;;;;;12.3;10.4;;;;;;;18.48;47.28809;959.697;;;;
2020/03/20 14:11:27;;;;;;;13;11.1;;;;;;;18.79;43.95605;959.6747;;;;
2020/03/20 14:13:52;;;;;;;15;10.9;;;;;;;18.63;44.81934;959.6489;;;;
2020/03/20 14:16:18;;;;;;;15.8;11.2;;;;;;;18.32;45.53711;959.5966;;;;
2020/03/20 14:18:43;;;;;;;16.3;11.1;;;;;;;17.98;45.86523;959.616;;;;
2020/03/20 14:21:55;;;;;;;14.1;10.7;;;;;;;18.01;46.57129;959.5825;;;;
2020/03/20 14:23:39;;;;;;;15.4;10.9;;;;;;;18.15;46.38672;959.633;;;;
2020/03/20 14:26:01;;;;;;;14.8;11.2;;;;;;;18.11;45.22363;959.6111;;;;
2020/03/20 14:28:25;;;;;;;16.9;11.3;;;;;;;18.06;45.01953;959.6;;;;